createdAt,value
2023-02-26T00:01:38.034Z,94.33
2023-02-26T00:05:41.045Z,95.52
2023-02-26T00:09:43.976Z,95.26
2023-02-26T00:13:49.212Z,96.09
2023-02-26T00:18:00.512Z,96.24
2023-02-26T00:22:05.357Z,96.77
2023-02-26T00:26:08.593Z,97.17
2023-02-26T00:30:14.115Z,97.48
2023-02-26T00:34:17.482Z,98.69
2023-02-26T00:38:20.837Z,99.15
2023-02-26T00:42:24.422Z,99.37
2023-02-26T00:46:39.520Z,99.76
2023-02-26T00:50:49.302Z,99.93
2023-02-26T00:54:52.697Z,100.00
2023-02-26T00:58:55.933Z,100.00
2023-02-26T01:03:01.045Z,100.00
2023-02-26T01:07:04.688Z,100.00
2023-02-26T01:11:08.252Z,100.00
2023-02-26T01:15:12.375Z,100.00
2023-02-26T01:19:25.478Z,100.00
2023-02-26T01:23:32.869Z,100.00
2023-02-26T01:27:36.217Z,100.00
2023-02-26T01:31:47.453Z,100.00
2023-02-26T01:35:56.729Z,100.00
2023-02-26T01:40:33.139Z,100.00
2023-02-26T01:44:42.754Z,99.95
2023-02-26T01:48:51.127Z,100.00
2023-02-26T01:53:17.527Z,100.00
2023-02-26T01:57:23.066Z,99.56
2023-02-26T02:01:26.315Z,99.43
2023-02-26T02:05:34.058Z,99.20
2023-02-26T02:09:38.620Z,98.88
2023-02-26T02:13:59.017Z,98.60
2023-02-26T02:18:06.895Z,98.28
2023-02-26T02:22:21.969Z,98.23
2023-02-26T02:26:46.636Z,98.33
2023-02-26T02:31:03.387Z,97.98
2023-02-26T02:35:13.189Z,97.83
2023-02-26T02:39:24.140Z,98.02
2023-02-26T02:43:33.617Z,97.85
2023-02-26T02:47:41.723Z,97.56
2023-02-26T02:51:50.534Z,97.28
2023-02-26T02:55:59.420Z,97.10
2023-02-26T03:00:09.089Z,97.11
2023-02-26T03:04:16.090Z,97.03
2023-02-26T03:08:23.268Z,96.54
2023-02-26T03:12:27.140Z,96.64
2023-02-26T03:17:07.411Z,96.48
2023-02-26T03:21:21.194Z,96.00
2023-02-26T03:25:28.339Z,95.84
2023-02-26T03:29:53.170Z,95.84
2023-02-26T03:34:00.268Z,95.08
2023-02-26T03:38:10.624Z,94.88
2023-02-26T03:42:23.950Z,94.54
2023-02-26T03:46:36.856Z,94.38
2023-02-26T03:50:46.083Z,93.95
2023-02-26T03:55:23.072Z,93.82
2023-02-26T03:59:52.602Z,93.72
2023-02-26T04:04:19.153Z,93.44
2023-02-26T04:08:23.536Z,93.40
2023-02-26T04:12:30.008Z,93.42
2023-02-26T04:16:33.365Z,92.98
2023-02-26T04:20:36.793Z,93.63
2023-02-26T04:24:39.854Z,93.67
2023-02-26T04:28:44.524Z,93.18
2023-02-26T04:32:48.012Z,92.85
2023-02-26T04:36:51.896Z,93.23
2023-02-26T04:40:56.182Z,93.44
2023-02-26T04:45:01.774Z,93.10
2023-02-26T04:49:05.949Z,92.92
2023-02-26T04:53:09.709Z,92.64
2023-02-26T04:57:14.269Z,92.89
2023-02-26T05:01:19.300Z,93.01
2023-02-26T05:05:22.663Z,93.50
2023-02-26T05:09:25.720Z,93.10
2023-02-26T05:13:28.730Z,93.40
2023-02-26T05:17:34.031Z,93.46
2023-02-26T05:21:37.260Z,93.25
2023-02-26T05:25:40.495Z,93.41
2023-02-26T05:29:45.008Z,93.44
2023-02-26T05:33:51.304Z,93.75
2023-02-26T05:37:54.419Z,93.58
2023-02-26T05:41:57.315Z,93.84
2023-02-26T05:46:00.950Z,94.18
2023-02-26T05:50:06.519Z,94.21
2023-02-26T05:54:09.762Z,94.38
2023-02-26T05:58:13.151Z,94.32
2023-02-26T06:02:16.367Z,94.41
2023-02-26T06:06:21.747Z,94.74
2023-02-26T06:10:24.904Z,95.12
2023-02-26T06:14:27.958Z,94.92
2023-02-26T06:18:32.262Z,95.26
2023-02-26T06:22:36.647Z,95.35
2023-02-26T06:26:39.912Z,95.58
2023-02-26T06:30:42.883Z,95.78
2023-02-26T06:34:45.814Z,96.28
2023-02-26T06:38:50.195Z,97.00
2023-02-26T06:42:53.155Z,96.89
2023-02-26T06:46:56.047Z,97.80
2023-02-26T06:50:59.068Z,97.47
2023-02-26T06:55:03.456Z,97.84
2023-02-26T06:59:06.661Z,98.14
2023-02-26T07:03:13.105Z,97.44
2023-02-26T07:07:16.068Z,97.68
2023-02-26T07:11:20.365Z,97.71
2023-02-26T07:15:23.500Z,98.01
2023-02-26T07:19:26.569Z,98.18
2023-02-26T07:23:29.865Z,97.99
2023-02-26T07:27:34.424Z,98.01
2023-02-26T07:31:37.410Z,97.82
2023-02-26T07:35:41.007Z,98.17
2023-02-26T07:39:43.918Z,97.70
2023-02-26T07:43:48.287Z,97.92
2023-02-26T07:47:52.549Z,97.91
2023-02-26T07:51:55.818Z,97.75
2023-02-26T07:55:58.619Z,97.72
2023-02-26T08:00:04.791Z,97.69
2023-02-26T08:04:15.355Z,97.65
2023-02-26T08:08:18.345Z,97.70
2023-02-26T08:12:21.439Z,97.27
2023-02-26T08:16:26.570Z,96.32
2023-02-26T08:20:29.871Z,95.81
2023-02-26T08:24:33.452Z,94.94
2023-02-26T08:28:36.802Z,94.51
2023-02-26T08:32:42.403Z,93.87
2023-02-26T08:36:45.619Z,92.16
2023-02-26T08:40:50.319Z,91.70
2023-02-26T08:44:53.366Z,90.94
2023-02-26T08:48:57.780Z,90.06
2023-02-26T08:53:00.872Z,89.30
2023-02-26T08:57:03.841Z,88.31
2023-02-26T09:01:07.047Z,88.08
2023-02-26T09:05:12.917Z,86.72
2023-02-26T09:09:16.264Z,83.46
2023-02-26T09:13:19.549Z,81.89
2023-02-26T09:17:22.535Z,82.95
2023-02-26T09:21:26.898Z,82.54
2023-02-26T09:25:29.817Z,81.08
2023-02-26T09:29:32.747Z,79.85
2023-02-26T09:33:36.505Z,79.83
2023-02-26T09:37:41.108Z,77.11
2023-02-26T09:41:48.563Z,78.23
2023-02-26T09:45:52.697Z,77.24
2023-02-26T09:50:02.026Z,76.28
2023-02-26T09:54:16.964Z,74.02
2023-02-26T09:58:25.032Z,72.76
2023-02-26T10:02:37.904Z,69.01
2023-02-26T10:06:51.023Z,65.95
2023-02-26T10:11:04.987Z,63.86
2023-02-26T10:15:14.342Z,62.49
2023-02-26T10:19:20.746Z,61.78
2023-02-26T10:23:29.801Z,60.59
2023-02-26T10:27:48.310Z,60.75
2023-02-26T10:32:03.211Z,60.14
2023-02-26T10:36:16.614Z,59.11
2023-02-26T10:40:25.660Z,58.51
2023-02-26T10:44:38.453Z,55.50
2023-02-26T10:48:55.740Z,55.59
2023-02-26T10:52:59.861Z,55.16
2023-02-26T10:57:04.082Z,54.87
2023-02-26T11:01:17.163Z,53.16
2023-02-26T11:05:23.695Z,52.36
2023-02-26T11:09:28.685Z,52.66
2023-02-26T11:13:34.869Z,52.98
2023-02-26T11:17:39.527Z,52.82
2023-02-26T11:21:46.207Z,52.62
2023-02-26T11:25:54.338Z,51.68
2023-02-26T11:29:59.617Z,51.54
2023-02-26T11:34:06.790Z,50.77
2023-02-26T11:38:19.769Z,51.07
2023-02-26T11:42:22.960Z,50.17
2023-02-26T11:46:28.733Z,48.59
2023-02-26T11:50:43.147Z,49.02
2023-02-26T11:54:47.764Z,48.65
2023-02-26T11:58:55.453Z,46.73
2023-02-26T12:03:04.366Z,47.49
2023-02-26T12:07:14.986Z,47.21
2023-02-26T12:11:43.776Z,46.82
2023-02-26T12:15:58.325Z,46.15
2023-02-26T12:20:15.322Z,44.99
2023-02-26T12:24:41.029Z,45.78
2023-02-26T12:29:23.894Z,45.43
2023-02-26T12:33:39.362Z,45.01
2023-02-26T12:37:53.008Z,45.50
2023-02-26T12:42:09.959Z,45.10
2023-02-26T12:46:24.476Z,46.03
2023-02-26T12:50:48.377Z,46.63
2023-02-26T12:55:05.400Z,46.04
2023-02-26T12:59:41.488Z,45.91
2023-02-26T13:04:13.928Z,45.21
2023-02-26T13:08:24.446Z,44.95
2023-02-26T13:12:38.646Z,43.87
2023-02-26T13:16:51.698Z,43.79
2023-02-26T13:21:00.515Z,44.01
2023-02-26T13:25:07.430Z,44.93
2023-02-26T13:29:17.925Z,45.34
2023-02-26T13:33:28.098Z,44.97
2023-02-26T13:37:33.838Z,43.50
2023-02-26T13:41:46.210Z,42.79
2023-02-26T13:45:59.457Z,41.93
2023-02-26T13:50:28.495Z,41.20
2023-02-26T13:54:43.646Z,40.85
2023-02-26T13:58:53.179Z,41.40
2023-02-26T14:02:58.516Z,41.88
2023-02-26T14:07:11.856Z,42.17
2023-02-26T14:11:42.089Z,41.76
2023-02-26T14:15:53.858Z,43.52
2023-02-26T14:20:18.923Z,43.87
2023-02-26T14:24:35.944Z,43.04
2023-02-26T14:28:45.435Z,43.83
2023-02-26T14:32:54.040Z,44.05
2023-02-26T14:37:00.826Z,43.33
2023-02-26T14:41:10.991Z,44.16
2023-02-26T14:45:27.332Z,43.87
2023-02-26T14:49:33.620Z,44.41
2023-02-26T14:54:15.014Z,44.48
2023-02-26T14:58:38.071Z,44.58
2023-02-26T15:03:06.231Z,44.81
2023-02-26T15:07:23.093Z,44.80
2023-02-26T15:11:38.851Z,46.03
2023-02-26T15:15:53.381Z,46.34
2023-02-26T15:20:06.891Z,47.46
2023-02-26T15:24:14.370Z,47.16
2023-02-26T15:28:30.140Z,47.88
2023-02-26T15:32:41.083Z,48.08
2023-02-26T15:36:46.598Z,48.69
2023-02-26T15:40:51.530Z,49.07
2023-02-26T15:45:03.023Z,49.26
2023-02-26T15:49:11.934Z,49.13
2023-02-26T15:53:22.414Z,49.69
2023-02-26T15:57:27.432Z,49.71
2023-02-26T16:01:32.452Z,50.51
2023-02-26T16:05:38.670Z,50.62
2023-02-26T16:09:43.470Z,50.89
2023-02-26T16:13:49.853Z,51.23
2023-02-26T16:17:56.893Z,51.60
2023-02-26T16:22:06.014Z,51.94
2023-02-26T16:26:14.873Z,52.11
2023-02-26T16:30:38.736Z,52.19
2023-02-26T16:34:45.379Z,52.67
2023-02-26T16:38:52.244Z,53.23
2023-02-26T16:43:02.232Z,53.44
2023-02-26T16:47:05.564Z,54.24
2023-02-26T16:51:12.567Z,54.64
2023-02-26T16:55:19.331Z,55.25
2023-02-26T16:59:25.601Z,54.97
2023-02-26T17:03:31.041Z,55.41
2023-02-26T17:07:36.482Z,56.14
2023-02-26T17:11:45.652Z,56.21
2023-02-26T17:15:49.159Z,56.52
2023-02-26T17:19:53.058Z,56.88
2023-02-26T17:24:01.887Z,57.81
2023-02-26T17:28:07.298Z,57.98
2023-02-26T17:32:19.797Z,58.61
2023-02-26T17:36:22.673Z,59.25
2023-02-26T17:40:28.063Z,60.01
2023-02-26T17:44:32.208Z,61.09
2023-02-26T17:48:35.586Z,62.54
2023-02-26T17:52:38.394Z,63.49
2023-02-26T17:56:42.177Z,64.15
2023-02-26T18:00:49.917Z,64.65
2023-02-26T18:04:53.082Z,65.94
2023-02-26T18:08:55.968Z,66.31
2023-02-26T18:12:59.587Z,67.10
2023-02-26T18:17:04.070Z,67.59
2023-02-26T18:21:06.997Z,67.73
2023-02-26T18:25:12.651Z,68.79
2023-02-26T18:29:15.470Z,69.25
2023-02-26T18:33:20.574Z,69.80
2023-02-26T18:37:26.163Z,70.53
2023-02-26T18:41:29.362Z,70.75
2023-02-26T18:45:32.346Z,71.67
2023-02-26T18:49:36.939Z,72.15
2023-02-26T18:53:40.502Z,72.12
2023-02-26T18:57:43.523Z,72.66
2023-02-26T19:01:47.137Z,72.65
2023-02-26T19:05:58.765Z,73.50
2023-02-26T19:10:02.324Z,73.73
2023-02-26T19:14:05.563Z,73.90
2023-02-26T19:18:08.428Z,74.60
2023-02-26T19:22:14.889Z,75.05
2023-02-26T19:26:17.755Z,75.60
2023-02-26T19:30:21.557Z,76.51
2023-02-26T19:34:24.591Z,76.82
2023-02-26T19:38:28.764Z,77.22
2023-02-26T19:42:31.618Z,77.57
2023-02-26T19:46:36.001Z,77.48
2023-02-26T19:50:38.912Z,77.48
2023-02-26T19:54:43.148Z,77.85
2023-02-26T19:58:46.051Z,77.85
2023-02-26T20:02:48.975Z,78.02
2023-02-26T20:06:51.907Z,78.24
2023-02-26T20:10:58.284Z,78.68
2023-02-26T20:15:01.112Z,79.35
2023-02-26T20:19:03.986Z,79.64
2023-02-26T20:23:06.781Z,79.52
2023-02-26T20:27:11.017Z,79.79
2023-02-26T20:31:14.038Z,80.77
2023-02-26T20:35:17.004Z,81.23
2023-02-26T20:39:21.027Z,81.72
2023-02-26T20:43:25.965Z,82.09
2023-02-26T20:47:28.832Z,82.42
2023-02-26T20:51:32.138Z,82.67
2023-02-26T20:55:35.083Z,82.69
2023-02-26T20:59:39.369Z,83.02
2023-02-26T21:03:42.220Z,83.34
2023-02-26T21:07:45.446Z,83.38
2023-02-26T21:11:48.460Z,83.68
2023-02-26T21:15:52.668Z,83.90
2023-02-26T21:19:55.665Z,84.35
2023-02-26T21:23:58.488Z,84.71
2023-02-26T21:28:01.316Z,84.86
2023-02-26T21:32:07.110Z,85.10
2023-02-26T21:36:11.463Z,85.59
2023-02-26T21:40:15.968Z,86.44
2023-02-26T21:44:18.830Z,86.42
2023-02-26T21:48:23.901Z,86.83
2023-02-26T21:52:28.804Z,86.54
2023-02-26T21:56:31.953Z,86.85
2023-02-26T22:00:34.957Z,86.81
2023-02-26T22:04:39.118Z,86.94
2023-02-26T22:08:41.955Z,87.31
2023-02-26T22:12:44.824Z,87.27
2023-02-26T22:16:47.784Z,87.23
2023-02-26T22:20:52.019Z,87.29
2023-02-26T22:24:54.835Z,87.78
2023-02-26T22:28:59.680Z,88.13
2023-02-26T22:33:02.528Z,88.08
2023-02-26T22:37:06.698Z,88.55
2023-02-26T22:41:09.518Z,88.80
2023-02-26T22:45:13.536Z,89.11
2023-02-26T22:49:16.727Z,88.96
2023-02-26T22:53:20.894Z,88.89
2023-02-26T22:57:23.697Z,89.25
2023-02-26T23:01:26.619Z,89.10
2023-02-26T23:05:29.565Z,88.72
2023-02-26T23:09:33.827Z,88.60
2023-02-26T23:13:38.109Z,89.41
2023-02-26T23:17:41.471Z,89.08
2023-02-26T23:21:44.279Z,89.28
2023-02-26T23:25:48.418Z,90.10
2023-02-26T23:29:51.544Z,89.75
2023-02-26T23:33:54.306Z,89.89
2023-02-26T23:37:57.297Z,90.50
2023-02-26T23:42:01.543Z,90.66
2023-02-26T23:46:04.589Z,90.58
2023-02-26T23:50:08.616Z,91.32
2023-02-26T23:54:12.114Z,91.50
2023-02-26T23:58:16.319Z,91.78
